arxmliv
arxmliv build tool
 
KWARC group
LaTeXML
About
   
 

Detailed info

Back to Homepage

List of missing_macros

No. Date Filename num_warningnum_errornum_xmargok_xmargnum_xmathok_xmathMissing macros
151401 2013-03-01 11:02:28 /0204/hep-ph.0204289 1110000[\theappendix].
151402 2013-03-01 11:02:24 /0204/hep-ph.0204296 610000[\toctitle].
151403 2013-03-01 11:02:14 /0204/hep-ph.0204297 2110000[\rotate].
151404 2013-03-01 11:01:48 /0204/hep-ph.0204288 8170000[\Line, \Photon, \Curve, \Vertex, \ArrowLine, \Text, \SetWidth, \SetScale, \DashCurve, \SetOffset, \LongArrow, \GOval]; 2 missing files[psfig, pst-coil.sty].
151405 2013-03-01 11:01:37 /0204/hep-ph.0204273 1110000[\drawline].
151406 2013-03-01 11:01:18 /0204/hep-ph.0204279 4610000[\topmargin].
151407 2013-03-01 11:01:13 /0204/hep-ph.0204276 1220000[\psfig]; 1 missing file[ws.sty].
151408 2013-03-01 11:00:46 /0204/hep-ph.0204259 15510000[\theappendix].
151409 2013-03-01 11:00:05 /0204/hep-ph.0204251 310000[\toctitle].
151410 2013-03-01 10:59:51 /0204/hep-ph.0204252 3420000[\includegraphics]; 1 missing file[ws.sty].
151411 2013-03-01 10:58:55 /0204/hep-ph.0204230 5200000[{fmffile}, \fmf, \fmfcmd, \fmftop, \fmfdot, \fmfpen, {fmfgraph*}, \fmfforce, \fmfleft, \fmfright].
151412 2013-03-01 10:58:05 /0204/hep-ph.0204191 7010000[\psfrag].
151413 2013-03-01 10:57:41 /0204/hep-ph.0204222 210000[\theappendix].
151414 2013-03-01 10:57:01 /0204/hep-ph.0204200 970000[\Line, \Text, \GCirc, \LongArrowArcn, \SetWidth, \LongArrow, \DashLine].
151415 2013-03-01 10:56:16 /0204/hep-ph.0204203 1710000[\toctitle].
151416 2013-03-01 10:55:54 /0204/hep-ph.0204207 020000[\backslashbox]; 1 missing file[slashbox.sty].
151417 2013-03-01 10:55:05 /0204/hep-ph.0204179 19510000[\institute].
151418 2013-03-01 10:53:57 /0204/hep-ph.0204164 3910000[\psfrag].
151419 2013-03-01 10:53:24 /0204/hep-ph.0204154 030000[\abstracts, \psfig]; 1 missing file[psfig].
151420 2013-03-01 10:53:19 /0204/hep-ph.0204128 41110000[\Line, \Photon, \DashArrowLine, \ArrowLine, \GCirc, \Vertex, \Text, \DashCArc, \CArc, \PhotonArc, \DashLine].
151421 2013-03-01 10:53:17 /0204/hep-ph.0204141 3450000[\Text, \ArrowLine, \Photon, \ArrowArcn, \PhotonArc].
151422 2013-03-01 10:52:07 /0204/hep-ph.0204135 310000[\setmarginsrb].
151423 2013-03-01 10:50:57 /0204/hep-ph.0204104 59270000[\BCirc, \ArrowArc, \ArrowArcn, \HideDisplacementBoxes, \Vertex, \BoxedEPSF, \Text, \ArrowLine, \abstracts, \CArc, \ZigZag, \SetepsfEPSFSpecial]; 2 missing files[boxedeps, ws.sty].
151424 2013-03-01 10:50:52 /0204/hep-ph.0204127 810000[\@date].
151425 2013-03-01 10:49:51 /0204/hep-ph.0204105 610000[\toctitle].
151426 2013-03-01 10:49:37 /0204/hep-ph.0204091 9010000[\psfrag].
151427 2013-03-01 10:49:23 /0204/hep-ph.0204099 7840000[\Vertex, \Text, \ArrowLine, \SetColor].
151428 2013-03-01 10:49:12 /0204/hep-ph.0204031 10950000[\Text, \ArrowLine, \SetWidth, \SetScale, \CBoxc].
151429 2013-03-01 10:47:45 /0204/hep-ph.0204079 2860000[\newmoon, \psfrag, {psfrags}, \fullmoon, \hexagon].
151430 2013-03-01 10:47:22 /0204/hep-ph.0204089 2120000[{sidewaystable}].
151431 2013-03-01 10:47:16 /0204/hep-ph.0204074 1860000[\Text, \ArrowLine, \SetWidth, \DashArrowArcn, \DashArrowArc, \DashArrowLine].
151432 2013-03-01 10:46:48 /0204/hep-ph.0204075 1160000[\BdBoxLine@, \branch, \PACS, \institute].
151433 2013-03-01 10:46:37 /0204/hep-ph.0204067 2440000[\Line, \Photon].
151434 2013-03-01 10:46:27 /0204/hep-ph.0204061 270000[\keyword, \PACS, \topage, \frompage, \authors]; 2 missing files[nassau.sty, pslatex.sty].
151435 2013-03-01 10:46:01 /0204/hep-ph.0204052 980000[\Line, \Text, \Vertex, \ArrowLine, \SetWidth, \SetScale, \Photon, \DashLine]; 1 missing file[cernart.cls].
151436 2013-03-01 10:44:56 /0204/hep-ph.0204056 070000[\psfrag].
151437 2013-03-01 10:44:52 /0204/hep-lat.0204015 1830000[\nouppercase].
151438 2013-03-01 10:44:26 /0204/hep-ph.0204047 2540000[\epsfbox, \abstracts, \epsfxsize]; 1 missing file[ws.sty].
151439 2013-03-01 10:44:09 /0204/hep-ph.0204023 63250000[\fmffreeze, {fmffile}, \fmfrightn, \fmfblob, \fmf, \fmfv, \fmfbottomn, {fmfgraph*}, \fmfleftn, \fmfleft, \fmftopn, \fmfright, \fmfi].
151440 2013-03-01 10:43:54 /0204/hep-ph.0204034 1610000[{centering}].
151441 2013-03-01 10:43:50 /0204/hep-ph.0204032 190000[\topage, \keyword, \epsfbox, \insertplot, \frompage, \PACS, \authors, \epsfxsize]; 1 missing file[parkcity.sty].
151442 2013-03-01 10:43:43 /0204/hep-ph.0204027 39370000[\fmfdotn, \fmffreeze, {fmffile}, \fmfdraw, \fmfrightn, \fmf, \fmflabel, \fmfv, \fmfdot, \fmfpen, {fmfgraph*}, \fmfleftn, \fmfleft, \fmfright, \fmfi].
151443 2013-03-01 10:43:41 /0204/hep-ph.0204036 560000[\topmargin, \evensidemargin, \setlength, \textheight, \textwidth, \oddsidemargin].
151444 2013-03-01 10:43:06 /0204/hep-ph.0204022 020000[\PScommands]; 1 missing file[psboxit.sty].
151445 2013-03-01 10:42:50 /0204/hep-ph.0204014 11100000[\citeauthoryear, \surname, \institute, {opening}, {article}, \keywords, \newdisplay, \lsim, \runningauthor, {turn}].
151446 2013-03-01 10:42:11 /0204/hep-lat.0204011 2850000[\epsfile]; 1 missing file[epsbox.sty].
151447 2013-03-01 10:42:08 /0204/hep-ph.0204015 020000[\abstracts]; 1 missing file[ws.sty].
151448 2013-03-01 10:42:04 /0204/hep-lat.0204031 180000[\overset, \institute, \runningtitle, {opening}, \includegraphics, \runningauthor, \scalebox, \text].
151449 2013-03-01 10:42:01 /0204/hep-lat.0204033 1350000[\institute, \epsffile, \runningtitle, {opening}, \epsfxsize].
151450 2013-03-01 10:41:58 /0204/hep-lat.0204032 140000[\runningauthor, \institute, \runningtitle, {opening}].
151451 2013-03-01 10:41:38 /0204/hep-ph.0204004 320000[\preprint]; 1 missing file[preprint2.sty].
151452 2013-03-01 10:41:33 /0204/hep-lat.0204027 1710000[\Bbb].
151453 2013-03-01 10:41:31 /0204/hep-lat.0204021 420000[\institute, {opening}].
151454 2013-03-01 10:41:19 /0204/hep-lat.0204026 1260000[\includegraphics, \scalebox, \runningauthor, \institute, \runningtitle, {opening}].
151455 2013-03-01 10:41:15 /0204/hep-lat.0204025 020000[\institute, {opening}].
151456 2013-03-01 10:41:14 /0204/hep-lat.0204028 2460000[\epsfbox, \runningauthor, \institute, \runningtitle, {opening}, \epsfxsize].
151457 2013-03-01 10:41:05 /0204/hep-lat.0204029 190000[\keyword, \insertplot, \PACS, \topage, \frompage, \authors]; 1 missing file[budapest.sty].
151458 2013-03-01 10:41:03 /0204/hep-lat.0204001 920000[{theacknowledgments}, \layoutstyle].
151459 2013-03-01 10:41:02 /0204/hep-lat.0204016 33120000[\fpsbox, \epsfxsize].
151460 2013-03-01 10:40:56 /0204/hep-lat.0204030 110000[\Z].
151461 2013-03-01 10:40:32 /0204/hep-ex.0204029 1480000[\extrasenglish, {sideways}, \geometry, \dateenglish, \captionsenglish]; 1 missing file[pslatex.sty].
151462 2013-03-01 10:40:30 /0204/hep-lat.0204020 1170000[\includegraphics, \runningauthor, \institute, \runningtitle, {opening}].
151463 2013-03-01 10:39:17 /0204/hep-ex.0204038 1170000[\address, \epsfbox, \titlefoot, {shortabs}, \CERNpreprint, \epsfxsize]; 1 missing file[dp_delphi.sty].
151464 2013-03-01 10:39:10 /0204/hep-ex.0204020 1110000[\psfrag].
151465 2013-03-01 10:39:01 /0204/hep-ex.0204035 020000[{figwindow}]; 1 missing file[picinpar.sty].
151466 2013-03-01 10:38:55 /0204/hep-ex.0204027 28110000[\preprint, \Lep, \ra, \MeV, \journalname, \GeV, \submitted, \citet, \NP]; 2 missing files[Lep.sty, l3_title.sty].
151467 2013-03-01 10:38:53 /0204/hep-ex.0204025 18100000[\vs, \preprint, \Lep, \journalname, \rts, \submitted, \citet, \ee]; 2 missing files[Lep.sty, l3_title.sty].
151468 2013-03-01 10:38:46 /0204/hep-ex.0204023 120000[{sidewaysfigure*}].
151469 2013-03-01 10:38:36 /0204/gr-qc.0204090 2540000[\epsfbox, \abstracts, \epsfxsize]; 1 missing file[ws.sty].
151470 2013-03-01 10:37:53 /0204/hep-ex.0204001 430000[\smaller].
151471 2013-03-01 10:37:44 /0204/gr-qc.0204080 020000[{theacknowledgments}, \layoutstyle].
151472 2013-03-01 10:37:39 /0204/gr-qc.0204042 6020000[Align, \citen].
151473 2013-03-01 10:37:06 /0204/gr-qc.0204062 9120000[\nonumsection, \copyrightheading, \fpage, \smalllineskip, \runninghead, \abstracts, \textlineskip, \tcaption, \publisher]; 1 missing file[mpla.sty].
151474 2013-03-01 10:36:37 /0204/gr-qc.0204057 2930000[\toctitle, \D, \E].
151475 2013-03-01 10:35:51 /0204/gr-qc.0204043 1410000[\toctitle].
151476 2013-03-01 10:35:17 /0204/gr-qc.0204008 195120000[\acknowledgements, \citen].
151477 2013-03-01 10:34:53 /0204/gr-qc.0204038 1610000[\toctitle].
151478 2013-03-01 10:34:42 /0204/gr-qc.0204023 8150000[\psfrag].
151479 2013-03-01 10:34:26 /0204/gr-qc.0204022 110000[\thechapter@ID].
151480 2013-03-01 10:33:31 /0204/gr-qc.0204001 4110000[\bezier].
151481 2013-03-01 10:33:30 /0204/gr-qc.0204002 10110000[\theappendix].
151482 2013-03-01 10:33:08 /0204/cs.0204037 24110000[{proof}]; 1 missing file[IEEEtran.cls].
151483 2013-03-01 10:32:51 /0204/cs.0204054 210000[{singlespace}].
151484 2013-03-01 10:32:49 /0204/cs.0204041 38310000[\copyrightname, \copyrightyear, \myURL, \campus, \degreeyear, \theappendix, \href, \thechapter, \researchfield, \url, \copyrightpage, \othermembers, \prevdegrees, {preface}, \chair, {frontmatter}, \degree]; 2 missing files[./brunelthesis.cls, myHyperref.
151485 2013-03-01 10:32:43 /0204/cs.0204056 130000[\category, \terms, \keywords]; 1 missing file[acmtrans2m.cls].
151486 2013-03-01 10:32:31 /0204/cs.0204033 8730000[\@ignoretrue].
151487 2013-03-01 10:32:14 /0204/cs.0204042 340000[\set, \Real, {proof}, {problem}].
151488 2013-03-01 10:32:07 /0204/cs.0204043 1660000[\emcite, \matrixput, \singleemcite]; 2 missing files[mlapa.sty, icml2002.sty].
151489 2013-03-01 10:32:06 /0204/cs.0204049 2120000[{keywords}, \firstpageno, \citep, \editor, \jmlrheading, \epsffile, \name, \ShortHeadings, \email, \acks, \addr]; 1 missing file[jmlr2e.sty].
151490 2013-03-01 10:31:41 /0204/cs.0204031 20140000[\citeauthoryear, \acmNumber, \acmVolume, {received}, \terms, {acks}, {bottomstuff}, \keywords, \acmYear, {definition}, \category, {proof}, \acmMonth, \newdef]; 1 missing file[acmtrans2m.cls].
151491 2013-03-01 10:31:32 /0204/cs.0204051 030000[\Journal, \abstracts]; 1 missing file[ws.sty].
151492 2013-03-01 10:31:24 /0204/cs.0204018 21990000[\Varid, \anonymous, \bind, \Conid, {frontmatter}, \text]; 2 missing files[arxivmacro.sty, lhs2TeXPreamble.sty].
151493 2013-03-01 10:31:23 /0204/cs.0204015 192450000[\hsvspace, \plus, \one, \Varid, \anonymous, \alignauthor, \IF, {Description}, \stratt, \Ditem, \lc, \all, {comment}, \email, \bind, \id, {cpattern}, \text, \pitem, {Pattern}, \affaddr, \Conid, \flc, \numberofauthors, {boxedminipage}, \fail]; 4 missing fi
151494 2013-03-01 10:31:16 /0204/cs.0204019 430000[\setpapersize, \setmarginsrb].
151495 2013-03-01 10:31:09 /0204/cs.0204034 090000[\conferenceinfo, \affaddr, \numberofauthors, \terms, \alignauthor, \theappendix, \CopyrightYear, \email, \category].
151496 2013-03-01 10:31:01 /0204/cs.0204035 390000[\conferenceinfo, \affaddr, \numberofauthors, \terms, \alignauthor, \theappendix, \CopyrightYear, \email, \category].
151497 2013-03-01 10:30:53 /0204/cs.0204036 12100000[\conferenceinfo, \affaddr, \newarrow, \numberofauthors, \terms, \alignauthor, \theappendix, \CopyrightYear, \email, \category].
151498 2013-03-01 10:29:55 /0204/cs.0204020 070000[\theendnotes, \maketitleabstract, \address, \citename, \endnote, \name]; 1 missing file[lrec2000.sty].
151499 2013-03-01 10:29:50 /0204/cs.0204013 234200000[\Varid, \anonymous, {boxedminipage}, \bind, \Conid, {frontmatter}, \normalshape]; 3 missing files[lhs2TeXPreamble.sty, boxedminipage.sty, entcsmacro.sty].
151500 2013-03-01 10:29:34 /0204/cs.0204026 080000[\SubSection, \Section].
151501 2013-03-01 10:29:18 /0204/cs.0204030 040000[{sideways}].
151502 2013-03-01 10:29:00 /0204/cs.0204004 390000[\maketitleabstract, \address, \citename, {boxedminipage}, \newcite, \name]; 2 missing files[lrec2000.sty, boxedminipage.sty].
151503 2013-03-01 10:28:49 /0204/cs.0204005 060000[\maketitleabstract, \address, \citename, \newcite, \name]; 1 missing file[lrec2000.sty].
151504 2013-03-01 10:28:45 /0204/cs.0204006 060000[\maketitleabstract, \address, \citename, \newcite, \name]; 1 missing file[lrec2000.sty].
151505 2013-03-01 10:26:23 /0204/cond-mat.0204622 35150000[\psfrag].
151506 2013-03-01 10:25:35 /0204/cond-mat.0204625 730000[\address]; 2 missing files[camera.sty, prbplug.sty].
151507 2013-03-01 10:24:20 /0204/cond-mat.0204613 040000[\email, \@affiliation].
151508 2013-03-01 10:24:07 /0204/cond-mat.0204619 140000[\extrasenglish, \dateenglish, \captionsenglish].
151509 2013-03-01 10:22:30 /0204/cond-mat.0204588 2450000[{acknowledgments}, \kword, \abst, \inst, \recdate].
151510 2013-03-01 10:20:48 /0204/cond-mat.0204582 030000[\extrasenglish, \dateenglish, \captionsenglish].
151511 2013-03-01 10:20:27 /0204/cond-mat.0204567 840000[\epsffile, \epsfxsize]; 2 missing files[subeqna.sty, jpsjbs.sty].
151512 2013-03-01 10:19:44 /0204/cond-mat.0204568 2100000[\Real, \sodtitle, \dates, \lat, \rauthor, \sodauthor, \address, \PACS, \Imag, \rtitle].
151513 2013-03-01 10:17:25 /0204/cond-mat.0204548 2540000[\titlerunning, \institute, \authorrunning]; 1 missing file[engi.sty].
151514 2013-03-01 10:14:17 /0204/cond-mat.0204469 33410000[{fmfchar*}, {fmffile}, \fmfrightn, \fmf, \fmflabel, \fmfbottom, \fmftop, \fmfv, \fmfpen, \fmfleftn, \fmfstraight].
151515 2013-03-01 10:14:10 /0204/cond-mat.0204503 110000[{turn}].
151516 2013-03-01 10:13:22 /0204/cond-mat.0204486 050000[\extrasenglish, {comment}, \dateenglish, \captionsenglish].
151517 2013-03-01 10:12:26 /0204/cond-mat.0204463 40980000[\PACSes, \idest, {xy}, \atque, {eqnletter}, \acknowledgments, \PACSit, \from, Align, \checkin, \ar, \instlist, \etal]; 1 missing file[xy.sty].
151518 2013-03-01 10:12:17 /0204/cond-mat.0204476 170000[\twofigures, \email, \@affiliation, \etal].
151519 2013-03-01 10:11:27 /0204/cond-mat.0204448 250000[\BoxedEPSF, \ForceWidth, \SetOzTeXEPSFSpecial, \HideDisplacementBoxes]; 1 missing file[BoxedEPS.tex].
151520 2013-03-01 10:11:06 /0204/cond-mat.0204452 1140000[\@affiliation, \onefigure, \chem, \etal].
151521 2013-03-01 10:11:00 /0204/cond-mat.0204439 910000[\psfrag].
151522 2013-03-01 10:10:56 /0204/cond-mat.0204446 150000[\BoxedEPSF, \ForceWidth, \SetOzTeXEPSFSpecial, \HideDisplacementBoxes]; 1 missing file[BoxedEPS.tex].
151523 2013-03-01 10:10:29 /0204/cond-mat.0204428 120000[\MakeShortVerb]; 1 missing file[shortvrb.sty].
151524 2013-03-01 10:10:27 /0204/cond-mat.0204425 950000[\twofigures, \email, \@affiliation, \etal].
151525 2013-03-01 10:09:04 /0204/cond-mat.0204380 6120000[\Line, \Photon, \ArrowLine, \Text, \Vertex, \SetScale, \SetOffset, \CArc, \SetScaledOffset, \LongArrowArc].
151526 2013-03-01 10:08:30 /0204/cond-mat.0204365 2120000[\email, \un, \ab, \@affiliation, \onefigure, \chem, \etal].
151527 2013-03-01 10:08:06 /0204/cond-mat.0204309 8130000[\tmspace, \psaxes, \txtmu].
151528 2013-03-01 10:08:04 /0204/cond-mat.0204358 220000[\toctitle]; 1 missing file[taphys.sty].
151529 2013-03-01 10:08:03 /0204/cond-mat.0204338 1510000[{subequations}].
151530 2013-03-01 10:07:31 /0204/cond-mat.0204344 3360000[\@affiliation].
151531 2013-03-01 10:07:23 /0204/cond-mat.0204347 420000[{theacknowledgments}, \layoutstyle].
151532 2013-03-01 10:06:57 /0204/cond-mat.0204332 130000[Align, \+, \columns].
151533 2013-03-01 10:06:45 /0204/cond-mat.0204316 030000[\address]; 2 missing files[camera.sty, prbplug.sty].
151534 2013-03-01 10:06:28 /0204/cond-mat.0204321 1130000[\twofigures, \psfrag, \@affiliation, \onefigure, \etal].
151535 2013-03-01 10:06:04 /0204/cond-mat.0204293 2360000[\address, {references}, \submitted]; 1 missing file[pss.cls].
151536 2013-03-01 10:05:00 /0204/cond-mat.0204267 4170000[\rmove, \rlvec, \drawdim, \setunitscale, {texdraw}, \fcir, \lvec, \linewd, \lpatt, \move, \lellip].
151537 2013-03-01 10:04:22 /0204/cond-mat.0204254 0230000[{acknowledgments}, \affil, {keywords}, \articletitle, {chapthebibliography}, \chaptitlerunninghead, \email, \normallatexbib].
151538 2013-03-01 10:04:22 /0204/cond-mat.0204272 470000[\twofigures, \@affiliation].
151539 2013-03-01 10:03:46 /0204/cond-mat.0204261 2210000[\sep].
151540 2013-03-01 10:02:03 /0204/cond-mat.0204163 8610000[\chapterauthors].
151541 2013-03-01 10:01:37 /0204/cond-mat.0204212 380000[\issue, \email, \@affiliation, \recff, \etal].
151542 2013-03-01 10:00:00 /0204/cond-mat.0204176 810000[\psfrag].
151543 2013-03-01 09:59:49 /0204/cond-mat.0204179 0150000[\@affiliation, \onefigure].
151544 2013-03-01 09:59:28 /0204/cond-mat.0204164 040000[\@affiliation, \onefigure].
151545 2013-03-01 09:58:36 /0204/cond-mat.0204145 13310000[\fancyplain, \bgtwocol, {referen}, \edtwocol]; 1 missing file[jps.sty].
151546 2013-03-01 09:58:33 /0204/cond-mat.0204130 2810000[\theappendix].
151547 2013-03-01 09:58:06 /0204/cond-mat.0204133 560000[\tocauthor, \toctitle, \inst, \titlerunning, \institute, \authorrunning].
151548 2013-03-01 09:57:48 /0204/cond-mat.0204135 220000[\toctitle]; 1 missing file[taphys.sty].
151549 2013-03-01 09:57:44 /0204/cond-mat.0204105 380000[\tocauthor, \toctitle, \frontmatter, \inst, \titlerunning, \institute, \authorrunning, \mainmatter].
151550 2013-03-01 09:57:05 /0204/cond-mat.0204107 1780000[\tocauthor, \toctitle, \frontmatter, \inst, \titlerunning, \institute, \authorrunning, \mainmatter].
151551 2013-03-01 09:56:54 /0204/cond-mat.0204108 260000[\euro, \pacs, \inst, \institute, \Date].
151552 2013-03-01 09:56:30 /0204/cond-mat.0204098 220000[\toctitle]; 1 missing file[physproc.sty].
151553 2013-03-01 09:56:29 /0204/cond-mat.0204102 630000[\vchcaption, {preface}, {vchfigure}].
151554 2013-03-01 09:55:02 /0204/cond-mat.0204080 880000[\euro, \pacs, \inst, \institute, \Date].
151555 2013-03-01 09:55:00 /0204/cond-mat.0204084 310000[\a].
151556 2013-03-01 09:54:52 /0204/cond-mat.0204062 1820000[{overpic}].
151557 2013-03-01 09:54:17 /0204/cond-mat.0204051 1120000[\twoimages, \@affiliation, \onefigure].
151558 2013-03-01 09:54:06 /0204/cond-mat.0204058 350000[\lesssim, \psfig, \institute, \runningtitle, {opening}].
151559 2013-03-01 09:53:28 /0204/cond-mat.0204044 040000[\ack, \thanksref, \psfig, {frontmatter}].
151560 2013-03-01 09:52:49 /0204/astro-ph.0204526 010000[\theappendix].
151561 2013-03-01 09:52:29 /0204/cond-mat.0204020 140000[\mib, \citet]; 2 missing files[subeqna.sty, jpsjbs.sty].
151562 2013-03-01 09:51:57 /0204/cond-mat.0204010 1680000[\psfig]; 1 missing file[psfig].
151563 2013-03-01 09:51:12 /0204/astro-ph.0204525 210000[\theappendix].
151564 2013-03-01 09:50:03 /0204/astro-ph.0204521 1630000[Align, {keywords}, \affiliation]; 1 missing file[arpp.cls].
151565 2013-03-01 09:48:54 /0204/astro-ph.0204505 1190000[\affil, \apj, \lesssim, \timeform, \emissiontype, \apjl, \aap, \nat, \Accepted, \email, \araa, \KeyWords, \aj, \Received, \mnras, \apjs, \gtrsim, \FigureFile, \SetRunningHead]; 1 missing file[pasj00.cls].
151566 2013-03-01 09:48:28 /0204/astro-ph.0204494 240000[\copyrightyear, \SetInternalRegister, {theacknowledgments}, \layoutstyle].
151567 2013-03-01 09:48:12 /0204/astro-ph.0204486 1810000[\theappendix].
151568 2013-03-01 09:47:52 /0204/astro-ph.0204478 040000[\theappendix, \psfrag, \frakfamily]; 1 missing file[oldgerm.sty].
151569 2013-03-01 09:46:47 /0204/astro-ph.0204471 0230000[\affil, \apj, \aj, \aap, \aapr, \mnras, \apjs, \pasp, \plotone, \reference, \arcsec, {references}, \acknowledgements, \plottwo]; 1 missing file[gh2001-asp.sty].
151570 2013-03-01 09:46:43 /0204/astro-ph.0204470 090000[\affil, \apjs, \apj, \reference, {references}, \tableline, \acknowledgments, \plottwo]; 1 missing file[newpasp.sty].
151571 2013-03-01 09:46:35 /0204/astro-ph.0204456 0140000[\journalinfo, \submitted].
151572 2013-03-01 09:46:22 /0204/astro-ph.0204443 010000[\theappendix].
151573 2013-03-01 09:46:13 /0204/astro-ph.0204444 610000[\theappendix].
151574 2013-03-01 09:46:10 /0204/astro-ph.0204463 130000[\toctitle, \D]; 1 missing file[u.fontmap].
151575 2013-03-01 09:45:45 /0204/astro-ph.0204446 720000[\tocauthor, \toctitle].
151576 2013-03-01 09:45:34 /0204/astro-ph.0204450 620000[{keywords}]; 1 missing file[basi.sty].
151577 2013-03-01 09:45:16 /0204/astro-ph.0204439 140000[\citeauthoryear, \shortciteN, \citeN]; 1 missing file[astrobib.sty].
151578 2013-03-01 09:45:13 /0204/astro-ph.0204436 4110000[\submitted].
151579 2013-03-01 09:44:32 /0204/astro-ph.0204427 34110000[\affil, \draft, \timeform, \emissiontype, \Received, \FigureFile, \Accepted, \email, \SetRunningHead, \KeyWords, \etal]; 1 missing file[pasj00.cls].
151580 2013-03-01 09:44:20 /0204/astro-ph.0204431 020000[\affil]; 1 missing file[newpasp.sty].
151581 2013-03-01 09:43:58 /0204/astro-ph.0204402 420000[\institute, {acknowledgements}]; 1 missing file[he_symp.cls].
151582 2013-03-01 09:43:56 /0204/astro-ph.0204418 210000[\institute]; 1 missing file[agnspec.cls].
151583 2013-03-01 09:43:38 /0204/astro-ph.0204392 440000[\subtitle, \institute, \runningtitle, {opening}].
151584 2013-03-01 09:43:32 /0204/astro-ph.0204404 030000[\copyrightyear, {theacknowledgments}, \layoutstyle].
151585 2013-03-01 09:43:23 /0204/astro-ph.0204407 140000[\copyrightyear, \SetInternalRegister, \layoutstyle, \classification].
151586 2013-03-01 09:42:52 /0204/astro-ph.0204389 570000[Align, \harvarditem, \citeasnoun].
151587 2013-03-01 09:42:22 /0204/astro-ph.0204386 120000[\psfig]; 1 missing file[psfig].
151588 2013-03-01 09:42:14 /0204/astro-ph.0204387 010000[\toctitle].
151589 2013-03-01 09:42:06 /0204/astro-ph.0204377 10170000[\apj, \aaps, \aap, \procspie, \Accepted, \email, \arcsec, \KeyWords, \draft, \altaffilmark, \Received, \mnras, \FigureFile, \altaffiltext, \citet, \farcs, \SetRunningHead]; 1 missing file[pasj00.cls].
151590 2013-03-01 09:42:04 /0204/astro-ph.0204362 910000[\theappendix].
151591 2013-03-01 09:41:47 /0204/astro-ph.0204379 010000[\theappendix].
151592 2013-03-01 09:41:37 /0204/astro-ph.0204381 080000[\surname, \institute, {opening}, {article}, \keywords, \newdisplay, \runningauthor, \acknowledgements].
151593 2013-03-01 09:41:27 /0204/astro-ph.0204363 24120000[\affil, \draft, \apj, \aap, \Received, \mnras, \FigureFile, \Accepted, \email, \yearcite, \SetRunningHead, \KeyWords]; 1 missing file[pasj00.cls].
151594 2013-03-01 09:41:12 /0204/astro-ph.0204369 030000[\copyrightyear, {theacknowledgments}, \layoutstyle].
151595 2013-03-01 09:41:04 /0204/astro-ph.0204357 1420000[\psfig]; 1 missing file[psfig.tex].
151596 2013-03-01 09:40:59 /0204/astro-ph.0204356 240000[\topmargin, \textheight, \oddsidemargin, \textwidth].
151597 2013-03-01 09:40:49 /0204/astro-ph.0204343 410000[\theappendix].
151598 2013-03-01 09:39:56 /0204/astro-ph.0204333 160000[\evenpagefooter, \oddpagefooter, \institute, \acknowledgements, {opening}]; 1 missing file[BSAXwork.sty].
151599 2013-03-01 09:39:55 /0204/astro-ph.0204331 2130000[\apj, \inst, \acknowledgement, \institute, \offprints, \aap, \keywords, \subtitle, \apjs, \email, \prd, \titlerunning, \authorrunning]; 1 missing file[a2.cls].
151600 2013-03-01 09:39:40 /0204/astro-ph.0204338 090000[\affil, \NPG, \journal, \citep, \msnumber, \printfigures, {acknowledgements}].
<<< >>>

[0] [200] [400] [600] [800] [1000] [1200] [1400] [1600] [1800] [2000] [2200] [2400] [2600] [2800] [3000] [3200] [3400] [3600] [3800] [4000] [4200] [4400] [4600] [4800] [5000] [5200] [5400] [5600] [5800] [6000] [6200] [6400] [6600] [6800] [7000] [7200] [7400] [7600] [7800] [8000] [8200] [8400] [8600] [8800] [9000] [9200] [9400] [9600] [9800] [10000] [10200] [10400] [10600] [10800] [11000] [11200] [11400] [11600] [11800] [12000] [12200] [12400] [12600] [12800] [13000] [13200] [13400] [13600] [13800] [14000] [14200] [14400] [14600] [14800] [15000] [15200] [15400] [15600] [15800] [16000] [16200] [16400] [16600] [16800] [17000] [17200] [17400] [17600] [17800] [18000] [18200] [18400] [18600] [18800] [19000] [19200] [19400] [19600] [19800] [20000] [20200] [20400] [20600] [20800] [21000] [21200] [21400] [21600] [21800] [22000] [22200] [22400] [22600] [22800] [23000] [23200] [23400] [23600] [23800] [24000] [24200] [24400] [24600] [24800] [25000] [25200] [25400] [25600] [25800] [26000] [26200] [26400] [26600] [26800] [27000] [27200] [27400] [27600] [27800] [28000] [28200] [28400] [28600] [28800] [29000] [29200] [29400] [29600] [29800] [30000] [30200] [30400] [30600] [30800] [31000] [31200] [31400] [31600] [31800] [32000] [32200] [32400] [32600] [32800] [33000] [33200] [33400] [33600] [33800] [34000] [34200] [34400] [34600] [34800] [35000] [35200] [35400] [35600] [35800] [36000] [36200] [36400] [36600] [36800] [37000] [37200] [37400] [37600] [37800] [38000] [38200] [38400] [38600] [38800] [39000] [39200] [39400] [39600] [39800] [40000] [40200] [40400] [40600] [40800] [41000] [41200] [41400] [41600] [41800] [42000] [42200] [42400] [42600] [42800] [43000] [43200] [43400] [43600] [43800] [44000] [44200] [44400] [44600] [44800] [45000] [45200] [45400] [45600] [45800] [46000] [46200] [46400] [46600] [46800] [47000] [47200] [47400] [47600] [47800] [48000] [48200] [48400] [48600] [48800] [49000] [49200] [49400] [49600] [49800] [50000] [50200] [50400] [50600] [50800] [51000] [51200] [51400] [51600] [51800] [52000] [52200] [52400] [52600] [52800] [53000] [53200] [53400] [53600] [53800] [54000] [54200] [54400] [54600] [54800] [55000] [55200] [55400] [55600] [55800] [56000] [56200] [56400] [56600] [56800] [57000] [57200] [57400] [57600] [57800] [58000] [58200] [58400] [58600] [58800] [59000] [59200] [59400] [59600] [59800] [60000] [60200] [60400] [60600] [60800] [61000] [61200] [61400] [61600] [61800] [62000] [62200] [62400] [62600] [62800] [63000] [63200] [63400] [63600] [63800] [64000] [64200] [64400] [64600] [64800] [65000] [65200] [65400] [65600] [65800] [66000] [66200] [66400] [66600] [66800] [67000] [67200] [67400] [67600] [67800] [68000] [68200] [68400] [68600] [68800] [69000] [69200] [69400] [69600] [69800] [70000] [70200] [70400] [70600] [70800] [71000] [71200] [71400] [71600] [71800] [72000] [72200] [72400] [72600] [72800] [73000] [73200] [73400] [73600] [73800] [74000] [74200] [74400] [74600] [74800] [75000] [75200] [75400] [75600] [75800] [76000] [76200] [76400] [76600] [76800] [77000] [77200] [77400] [77600] [77800] [78000] [78200] [78400] [78600] [78800] [79000] [79200] [79400] [79600] [79800] [80000] [80200] [80400] [80600] [80800] [81000] [81200] [81400] [81600] [81800] [82000] [82200] [82400] [82600] [82800] [83000] [83200] [83400] [83600] [83800] [84000] [84200] [84400] [84600] [84800] [85000] [85200] [85400] [85600] [85800] [86000] [86200] [86400] [86600] [86800] [87000] [87200] [87400] [87600] [87800] [88000] [88200] [88400] [88600] [88800] [89000] [89200] [89400] [89600] [89800] [90000] [90200] [90400] [90600] [90800] [91000] [91200] [91400] [91600] [91800] [92000] [92200] [92400] [92600] [92800] [93000] [93200] [93400] [93600] [93800] [94000] [94200] [94400] [94600] [94800] [95000] [95200] [95400] [95600] [95800] [96000] [96200] [96400] [96600] [96800] [97000] [97200] [97400] [97600] [97800] [98000] [98200] [98400] [98600] [98800] [99000] [99200] [99400] [99600] [99800] [100000] [100200] [100400] [100600] [100800] [101000] [101200] [101400] [101600] [101800] [102000] [102200] [102400] [102600] [102800] [103000] [103200] [103400] [103600] [103800] [104000] [104200] [104400] [104600] [104800] [105000] [105200] [105400] [105600] [105800] [106000] [106200] [106400] [106600] [106800] [107000] [107200] [107400] [107600] [107800] [108000] [108200] [108400] [108600] [108800] [109000] [109200] [109400] [109600] [109800] [110000] [110200] [110400] [110600] [110800] [111000] [111200] [111400] [111600] [111800] [112000] [112200] [112400] [112600] [112800] [113000] [113200] [113400] [113600] [113800] [114000] [114200] [114400] [114600] [114800] [115000] [115200] [115400] [115600] [115800] [116000] [116200] [116400] [116600] [116800] [117000] [117200] [117400] [117600] [117800] [118000] [118200] [118400] [118600] [118800] [119000] [119200] [119400] [119600] [119800] [120000] [120200] [120400] [120600] [120800] [121000] [121200] [121400] [121600] [121800] [122000] [122200] [122400] [122600] [122800] [123000] [123200] [123400] [123600] [123800] [124000] [124200] [124400] [124600] [124800] [125000] [125200] [125400] [125600] [125800] [126000] [126200] [126400] [126600] [126800] [127000] [127200] [127400] [127600] [127800] [128000] [128200] [128400] [128600] [128800] [129000] [129200] [129400] [129600] [129800] [130000] [130200] [130400] [130600] [130800] [131000] [131200] [131400] [131600] [131800] [132000] [132200] [132400] [132600] [132800] [133000] [133200] [133400] [133600] [133800] [134000] [134200] [134400] [134600] [134800] [135000] [135200] [135400] [135600] [135800] [136000] [136200] [136400] [136600] [136800] [137000] [137200] [137400] [137600] [137800] [138000] [138200] [138400] [138600] [138800] [139000] [139200] [139400] [139600] [139800] [140000] [140200] [140400] [140600] [140800] [141000] [141200] [141400] [141600] [141800] [142000] [142200] [142400] [142600] [142800] [143000] [143200] [143400] [143600] [143800] [144000] [144200] [144400] [144600] [144800] [145000] [145200] [145400] [145600] [145800] [146000] [146200] [146400] [146600] [146800] [147000] [147200] [147400] [147600] [147800] [148000] [148200] [148400] [148600] [148800] [149000] [149200] [149400] [149600] [149800] [150000] [150200] [150400] [150600] [150800] [151000] [151200] [151400] [151600] [151800] [152000] [152200] [152400] [152600] [152800] [153000] [153200] [153400] [153600] [153800] [154000] [154200] [154400] [154600] [154800] [155000] [155200] [155400] [155600] [155800] [156000] [156200] [156400] [156600] [156800] [157000] [157200] [157400] [157600] [157800] [158000] [158200] [158400] [158600] [158800] [159000] [159200] [159400] [159600] [159800] [160000] [160200] [160400] [160600] [160800] [161000] [161200] [161400] [161600] [161800] [162000] [162200] [162400] [162600] [162800] [163000] [163200] [163400] [163600] [163800] [164000] [164200] [164400] [164600]
 
  The service has been written by
Heinrich Stamerjohanns